<?xml version='1.0' encoding='UTF-8'?><gpx version="1.1" creator="JPX - https://github.com/jenetics/jpx" xmlns="http://www.topografix.com/GPX/1/1"><trk><trkseg><trkpt lat="43.26355836910615" lon="10.884622372347335"><ele>362.0</ele><time>2026-03-26T14:46:44Z</time></trkpt><trkpt lat="43.2635116634355" lon="10.88469323350055"><ele>362.0</ele><time>2026-03-26T14:46:51Z</time></trkpt><trkpt lat="43.263442883814385" lon="10.884718274718912"><ele>362.0</ele><time>2026-03-26T14:46:56Z</time></trkpt><trkpt lat="43.26338067161749" lon="10.88475698229056"><ele>362.0</ele><time>2026-03-26T14:47:06Z</time></trkpt><trkpt lat="43.26334106519652" lon="10.884836709213097"><ele>362.0</ele><time>2026-03-26T14:47:16Z</time></trkpt><trkpt lat="43.263295556522124" lon="10.884901784340261"><ele>362.0</ele><time>2026-03-26T14:47:23Z</time></trkpt><trkpt lat="43.26323578117424" lon="10.884971832252381"><ele>362.0</ele><time>2026-03-26T14:47:33Z</time></trkpt><trkpt lat="43.26318143985043" lon="10.885040404485798"><ele>362.0</ele><time>2026-03-26T14:47:39Z</time></trkpt><trkpt lat="43.26313007299649" lon="10.885091255348934"><ele>362.0</ele><time>2026-03-26T14:47:44Z</time></trkpt><trkpt lat="43.263074167226925" lon="10.885154849764522"><ele>362.0</ele><time>2026-03-26T14:47:49Z</time></trkpt><trkpt lat="43.263045029116874" lon="10.885231573012929"><ele>362.0</ele><time>2026-03-26T14:47:55Z</time></trkpt><trkpt lat="43.26301154348314" lon="10.885318020497424"><ele>362.0</ele><time>2026-03-26T14:48:02Z</time></trkpt><trkpt lat="43.26296559112815" lon="10.88537935288669"><ele>362.0</ele><time>2026-03-26T14:48:08Z</time></trkpt><trkpt lat="43.262869287975704" lon="10.885403909717002"><ele>362.0</ele><time>2026-03-26T14:49:12.998Z</time></trkpt><trkpt lat="43.26279593486449" lon="10.88537871648596"><ele>362.0</ele><time>2026-03-26T14:49:21.998Z</time></trkpt><trkpt lat="43.26283328109506" lon="10.885295013747557"><ele>362.0</ele><time>2026-03-26T14:49:31.998Z</time></trkpt><trkpt lat="43.26288247695341" lon="10.885224615715591"><ele>362.0</ele><time>2026-03-26T14:49:46.999Z</time></trkpt><trkpt lat="43.26292818423068" lon="10.8850965546573"><ele>362.0</ele><time>2026-03-26T14:50:04.999Z</time></trkpt><trkpt lat="43.26297758197772" lon="10.885038726659182"><ele>362.0</ele><time>2026-03-26T14:50:10.999Z</time></trkpt><trkpt lat="43.26303448576186" lon="10.884974892840106"><ele>362.0</ele><time>2026-03-26T14:50:16.999Z</time></trkpt><trkpt lat="43.26308842507491" lon="10.884928293887155"><ele>362.0</ele><time>2026-03-26T14:50:21.999Z</time></trkpt><trkpt lat="43.2631450285825" lon="10.88488430116057"><ele>362.0</ele><time>2026-03-26T14:50:26.999Z</time></trkpt><trkpt lat="43.26319860982675" lon="10.884820449366432"><ele>362.0</ele><time>2026-03-26T14:50:33.993Z</time></trkpt><trkpt lat="43.26325911462678" lon="10.884776786683728"><ele>362.0</ele><time>2026-03-26T14:50:43.994Z</time></trkpt><trkpt lat="43.26332783649028" lon="10.884760360060788"><ele>362.0</ele><time>2026-03-26T14:51:27.998Z</time></trkpt><trkpt lat="43.26339720330307" lon="10.884715637813608"><ele>362.0</ele><time>2026-03-26T14:51:32.999Z</time></trkpt><trkpt lat="43.26345330781407" lon="10.884643444938888"><ele>362.0</ele><time>2026-03-26T14:51:38.999Z</time></trkpt><trkpt lat="43.26344080442026" lon="10.884535845745525"><ele>362.0</ele><time>2026-03-26T14:51:52.999Z</time></trkpt><trkpt lat="43.26337459906293" lon="10.884532279962146"><ele>362.0</ele><time>2026-03-26T14:52:03Z</time></trkpt><trkpt lat="43.26331082038698" lon="10.884552487803214"><ele>362.0</ele><time>2026-03-26T14:52:12Z</time></trkpt><trkpt lat="43.26324496340307" lon="10.88455527222197"><ele>362.0</ele><time>2026-03-26T14:52:33.001Z</time></trkpt><trkpt lat="43.2631842686424" lon="10.884584133040573"><ele>362.0</ele><time>2026-03-26T14:52:43.995Z</time></trkpt><trkpt lat="43.263123881620075" lon="10.884627032534173"><ele>362.0</ele><time>2026-03-26T14:52:53.997Z</time></trkpt><trkpt lat="43.26307309223044" lon="10.884691126553653"><ele>362.0</ele><time>2026-03-26T14:53:06.999Z</time></trkpt><trkpt lat="43.26301655092581" lon="10.884730355275568"><ele>362.0</ele><time>2026-03-26T14:53:17Z</time></trkpt><trkpt lat="43.26298297910302" lon="10.884811041658764"><ele>362.1428571428571</ele><time>2026-03-26T14:53:24Z</time></trkpt><trkpt lat="43.262934989974276" lon="10.88487050502858"><ele>362.2857142857143</ele><time>2026-03-26T14:53:30.001Z</time></trkpt><trkpt lat="43.262888068503656" lon="10.884932762096359"><ele>362.42857142857144</ele><time>2026-03-26T14:53:37.001Z</time></trkpt><trkpt lat="43.26284144079812" lon="10.885009307257938"><ele>362.57142857142856</ele><time>2026-03-26T14:53:42.001Z</time></trkpt><trkpt lat="43.262796186941735" lon="10.885073375316448"><ele>362.7142857142857</ele><time>2026-03-26T14:53:48.001Z</time></trkpt><trkpt lat="43.262725051324495" lon="10.885085668260448"><ele>362.85714285714283</ele><time>2026-03-26T14:54:09.002Z</time></trkpt><trkpt lat="43.2626444132784" lon="10.88516176873443"><ele>363.0</ele><time>2026-03-26T14:54:24.003Z</time></trkpt><trkpt lat="43.26260597286666" lon="10.885236644701695"><ele>362.99999999999994</ele><time>2026-03-26T14:54:28.003Z</time></trkpt><trkpt lat="43.26253520661886" lon="10.885250545426937"><ele>363.0</ele><time>2026-03-26T14:54:38.003Z</time></trkpt><trkpt lat="43.262458162467404" lon="10.885181426268032"><ele>363.0</ele><time>2026-03-26T14:54:51.997Z</time></trkpt><trkpt lat="43.262416254327356" lon="10.885115562292784"><ele>363.0</ele><time>2026-03-26T14:54:59.998Z</time></trkpt><trkpt lat="43.2623890930195" lon="10.885020823258863"><ele>363.0</ele><time>2026-03-26T14:55:09.999Z</time></trkpt><trkpt lat="43.262351389728806" lon="10.88494719468203"><ele>362.99999999999994</ele><time>2026-03-26T14:55:17Z</time></trkpt><trkpt lat="43.26231947316749" lon="10.884871752050316"><ele>363.0</ele><time>2026-03-26T14:55:24Z</time></trkpt><trkpt lat="43.262237463581144" lon="10.884813284988388"><ele>365.99999999999994</ele><time>2026-03-26T14:56:10.002Z</time></trkpt><trkpt lat="43.262156353663286" lon="10.88477664405788"><ele>369.0</ele><time>2026-03-26T14:57:23Z</time></trkpt><trkpt lat="43.26209599090407" lon="10.884828187213676"><ele>372.0</ele><time>2026-03-26T14:57:31Z</time></trkpt><trkpt lat="43.26207180368658" lon="10.884739508746737"><ele>375.0</ele><time>2026-03-26T14:57:48.001Z</time></trkpt><trkpt lat="43.262077169298266" lon="10.884648880533682"><ele>378.0</ele><time>2026-03-26T14:58:12.002Z</time></trkpt><trkpt lat="43.26211001159431" lon="10.884573197704366"><ele>380.99999999999994</ele><time>2026-03-26T14:58:25.002Z</time></trkpt><trkpt lat="43.26215036819854" lon="10.884498549229642"><ele>384.0</ele><time>2026-03-26T14:58:34.003Z</time></trkpt><trkpt lat="43.2622157203063" lon="10.884464050169044"><ele>383.99999999999994</ele><time>2026-03-26T14:58:42.003Z</time></trkpt><trkpt lat="43.26227699121271" lon="10.884431037687701"><ele>384.0</ele><time>2026-03-26T14:59:06.998Z</time></trkpt><trkpt lat="43.26233637656509" lon="10.884464813223266"><ele>384.0</ele><time>2026-03-26T14:59:14.999Z</time></trkpt><trkpt lat="43.26240230973119" lon="10.884453156098054"><ele>384.0</ele><time>2026-03-26T14:59:21.999Z</time></trkpt><trkpt lat="43.262456884069636" lon="10.884407745394181"><ele>384.0</ele><time>2026-03-26T14:59:29Z</time></trkpt><trkpt lat="43.26247360407381" lon="10.884317231505653"><ele>383.99999999999994</ele><time>2026-03-26T14:59:41.001Z</time></trkpt><trkpt lat="43.26247205442117" lon="10.884227614231165"><ele>384.0</ele><time>2026-03-26T14:59:50.001Z</time></trkpt><trkpt lat="43.26243056627384" lon="10.884151722474101"><ele>387.1428571428571</ele><time>2026-03-26T14:59:58.001Z</time></trkpt><trkpt lat="43.26242074105145" lon="10.884064605695047"><ele>390.2857142857143</ele><time>2026-03-26T15:00:43.003Z</time></trkpt><trkpt lat="43.262423616442604" lon="10.883973299753013"><ele>393.42857142857144</ele><time>2026-03-26T15:00:54.003Z</time></trkpt><trkpt lat="43.26246210822708" lon="10.883900600656915"><ele>396.57142857142856</ele><time>2026-03-26T15:01:02.997Z</time></trkpt><trkpt lat="43.26252634948343" lon="10.883892254319115"><ele>399.7142857142857</ele><time>2026-03-26T15:01:09.997Z</time></trkpt><trkpt lat="43.262589642193916" lon="10.88388267863891"><ele>402.85714285714283</ele><time>2026-03-26T15:01:15.998Z</time></trkpt><trkpt lat="43.26259786182556" lon="10.88377372054201"><ele>406.0</ele><time>2026-03-26T15:01:20.999Z</time></trkpt><trkpt lat="43.262565901107216" lon="10.88368950165544"><ele>406.0</ele><time>2026-03-26T15:01:26.999Z</time></trkpt><trkpt lat="43.26256179336626" lon="10.883596328124648"><ele>406.0</ele><time>2026-03-26T15:01:40Z</time></trkpt><trkpt lat="43.26259598469368" lon="10.883519306570156"><ele>406.0</ele><time>2026-03-26T15:01:46.001Z</time></trkpt><trkpt lat="43.2626477808332" lon="10.883455530867703"><ele>406.0</ele><time>2026-03-26T15:01:53.001Z</time></trkpt><trkpt lat="43.262715183176134" lon="10.883426812610276"><ele>406.0</ele><time>2026-03-26T15:02:00.001Z</time></trkpt><trkpt lat="43.26273794610754" lon="10.883303674607825"><ele>406.0</ele><time>2026-03-26T15:02:12.002Z</time></trkpt><trkpt lat="43.262728686930615" lon="10.883214643759194"><ele>406.0</ele><time>2026-03-26T15:02:20.002Z</time></trkpt><trkpt lat="43.26271798853009" lon="10.88312698244545"><ele>407.7142857142857</ele><time>2026-03-26T15:02:25.002Z</time></trkpt><trkpt lat="43.262714609170175" lon="10.88303557690249"><ele>409.42857142857144</ele><time>2026-03-26T15:02:30.002Z</time></trkpt><trkpt lat="43.26276141571358" lon="10.882954896867666"><ele>411.1428571428571</ele><time>2026-03-26T15:02:35.002Z</time></trkpt><trkpt lat="43.26281775749047" lon="10.882898636752145"><ele>412.8571428571429</ele><time>2026-03-26T15:02:40.002Z</time></trkpt><trkpt lat="43.26286793339522" lon="10.882832158674326"><ele>414.57142857142856</ele><time>2026-03-26T15:02:46.003Z</time></trkpt><trkpt lat="43.26294238445796" lon="10.882840524330144"><ele>416.2857142857143</ele><time>2026-03-26T15:02:53.003Z</time></trkpt><trkpt lat="43.26297532626007" lon="10.882763071778589"><ele>418.0</ele><time>2026-03-26T15:02:57.003Z</time></trkpt><trkpt lat="43.262999691717454" lon="10.882667317527705"><ele>418.0</ele><time>2026-03-26T15:03:02.003Z</time></trkpt><trkpt lat="43.263063915436085" lon="10.882651281457939"><ele>418.0</ele><time>2026-03-26T15:03:07.003Z</time></trkpt><trkpt lat="43.2631295528865" lon="10.882628631821039"><ele>418.0</ele><time>2026-03-26T15:03:12.996Z</time></trkpt><trkpt lat="43.26319137929005" lon="10.882584267991918"><ele>418.0</ele><time>2026-03-26T15:03:19.997Z</time></trkpt><trkpt lat="43.26325779320479" lon="10.882546065418929"><ele>418.0</ele><time>2026-03-26T15:03:25.998Z</time></trkpt><trkpt lat="43.26332402339691" lon="10.882534652310419"><ele>418.0</ele><time>2026-03-26T15:03:31.999Z</time></trkpt><trkpt lat="43.26338268540792" lon="10.882572269224493"><ele>418.0</ele><time>2026-03-26T15:03:38.999Z</time></trkpt><trkpt lat="43.26343974724172" lon="10.882616208009374"><ele>416.57142857142856</ele><time>2026-03-26T15:03:46Z</time></trkpt><trkpt lat="43.26350674269677" lon="10.882663762501616"><ele>415.1428571428571</ele><time>2026-03-26T15:03:51Z</time></trkpt><trkpt lat="43.26354644238981" lon="10.882584166544893"><ele>413.7142857142857</ele><time>2026-03-26T15:03:59.001Z</time></trkpt><trkpt lat="43.26355539663256" lon="10.882488750372545"><ele>412.2857142857143</ele><time>2026-03-26T15:04:05.001Z</time></trkpt><trkpt lat="43.26360341081704" lon="10.882395065990154"><ele>410.8571428571429</ele><time>2026-03-26T15:04:11.001Z</time></trkpt><trkpt lat="43.263640318661224" lon="10.882307878800887"><ele>409.42857142857144</ele><time>2026-03-26T15:06:37.002Z</time></trkpt><trkpt lat="43.2637127651006" lon="10.882289167561007"><ele>408.0</ele><time>2026-03-26T15:06:42.002Z</time></trkpt><trkpt lat="43.26378108276331" lon="10.882297882934353"><ele>408.0</ele><time>2026-03-26T15:07:02.003Z</time></trkpt><trkpt lat="43.26383520965728" lon="10.882360703744146"><ele>408.0</ele><time>2026-03-26T15:07:24.999Z</time></trkpt><trkpt lat="43.263860884946794" lon="10.882441319904213"><ele>408.0</ele><time>2026-03-26T15:07:32Z</time></trkpt><trkpt lat="43.26390323993737" lon="10.882515360517699"><ele>408.0</ele><time>2026-03-26T15:07:58.001Z</time></trkpt><trkpt lat="43.26396951570288" lon="10.882515155001443"><ele>408.0</ele><time>2026-03-26T15:08:04.001Z</time></trkpt><trkpt lat="43.264036238099465" lon="10.882483085225454"><ele>408.0</ele><time>2026-03-26T15:08:12.001Z</time></trkpt><trkpt lat="43.26409663161319" lon="10.882446696433107"><ele>408.0</ele><time>2026-03-26T15:08:24.002Z</time></trkpt><trkpt lat="43.26417027465799" lon="10.882439907483915"><ele>406.2857142857143</ele><time>2026-03-26T15:08:41.002Z</time></trkpt><trkpt lat="43.264234456475535" lon="10.882461446298741"><ele>404.57142857142856</ele><time>2026-03-26T15:08:50.002Z</time></trkpt><trkpt lat="43.26428664434606" lon="10.882517955365136"><ele>402.8571428571429</ele><time>2026-03-26T15:08:53.002Z</time></trkpt><trkpt lat="43.2643336366287" lon="10.882582948827"><ele>401.1428571428571</ele><time>2026-03-26T15:08:59.003Z</time></trkpt><trkpt lat="43.264360374485925" lon="10.882668087654915"><ele>399.4285714285714</ele><time>2026-03-26T15:09:07.003Z</time></trkpt><trkpt lat="43.26439491878081" lon="10.88274736747305"><ele>397.7142857142857</ele><time>2026-03-26T15:09:18.003Z</time></trkpt><trkpt lat="43.264413849740464" lon="10.8828408304727"><ele>396.0</ele><time>2026-03-26T15:12:54.001Z</time></trkpt><trkpt lat="43.26440083380964" lon="10.882941376201545"><ele>393.6666666666667</ele><time>2026-03-26T15:13:14.001Z</time></trkpt><trkpt lat="43.26438039389168" lon="10.88302897632244"><ele>391.3333333333333</ele><time>2026-03-26T15:13:17.001Z</time></trkpt><trkpt lat="43.26430564230806" lon="10.883075332365324"><ele>389.0</ele><time>2026-03-26T15:13:20.001Z</time></trkpt><trkpt lat="43.26425845548992" lon="10.883141296610095"><ele>386.66666666666663</ele><time>2026-03-26T15:13:28.001Z</time></trkpt><trkpt lat="43.26418939654557" lon="10.88320744707646"><ele>384.3333333333333</ele><time>2026-03-26T15:13:34.001Z</time></trkpt><trkpt lat="43.264121866342954" lon="10.883279669651841"><ele>382.0</ele><time>2026-03-26T15:13:38.001Z</time></trkpt><trkpt lat="43.2640548487077" lon="10.883339129508261"><ele>382.0</ele><time>2026-03-26T15:13:41.001Z</time></trkpt><trkpt lat="43.26399065374524" lon="10.88340401510967"><ele>382.0</ele><time>2026-03-26T15:13:44.001Z</time></trkpt><trkpt lat="43.26392344047021" lon="10.883429856280886"><ele>382.0</ele><time>2026-03-26T15:13:47.001Z</time></trkpt><trkpt lat="43.2638688834158" lon="10.883483008414304"><ele>382.0</ele><time>2026-03-26T15:13:51.001Z</time></trkpt><trkpt lat="43.263804149360425" lon="10.883470339744667"><ele>382.0</ele><time>2026-03-26T15:13:57.001Z</time></trkpt><trkpt lat="43.26374073052119" lon="10.883497878949326"><ele>382.0</ele><time>2026-03-26T15:14:05.001Z</time></trkpt><trkpt lat="43.26367264357995" lon="10.883511209286905"><ele>382.0</ele><time>2026-03-26T15:14:11.001Z</time></trkpt><trkpt lat="43.26360273458247" lon="10.883535959763748"><ele>381.7142857142857</ele><time>2026-03-26T15:14:17.001Z</time></trkpt><trkpt lat="43.26354177655778" lon="10.883558110377097"><ele>381.4285714285714</ele><time>2026-03-26T15:14:22.001Z</time></trkpt><trkpt lat="43.263476239899646" lon="10.8835687438786"><ele>381.1428571428571</ele><time>2026-03-26T15:14:29.001Z</time></trkpt><trkpt lat="43.2634043036978" lon="10.883592821679803"><ele>380.8571428571429</ele><time>2026-03-26T15:14:51.001Z</time></trkpt><trkpt lat="43.263469658716986" lon="10.883647543477062"><ele>380.57142857142856</ele><time>2026-03-26T15:15:14.001Z</time></trkpt><trkpt lat="43.26351971535157" lon="10.88372499541936"><ele>380.2857142857143</ele><time>2026-03-26T15:15:21.001Z</time></trkpt><trkpt lat="43.263568126072194" lon="10.883801722873404"><ele>380.0</ele><time>2026-03-26T15:15:26.001Z</time></trkpt><trkpt lat="43.26363608591413" lon="10.883839841172987"><ele>380.0</ele><time>2026-03-26T15:15:41.001Z</time></trkpt><trkpt lat="43.26370216278874" lon="10.883841757531613"><ele>380.0</ele><time>2026-03-26T15:16:24.001Z</time></trkpt><trkpt lat="43.26372068819965" lon="10.883925666851962"><ele>380.0</ele><time>2026-03-26T15:16:33.001Z</time></trkpt><trkpt lat="43.26367611383059" lon="10.88403516643852"><ele>380.0</ele><time>2026-03-26T15:19:40Z</time></trkpt><trkpt lat="43.26373097374279" lon="10.884101806259327"><ele>380.0</ele><time>2026-03-26T15:20:17Z</time></trkpt><trkpt lat="43.26379571192952" lon="10.88409290211027"><ele>380.0</ele><time>2026-03-26T15:20:39Z</time></trkpt><trkpt lat="43.26379748661196" lon="10.88418372069644"><ele>380.0</ele><time>2026-03-26T15:20:55Z</time></trkpt><trkpt lat="43.26371190112512" lon="10.88422858334875"><ele>380.0</ele><time>2026-03-26T15:21:04Z</time></trkpt><trkpt lat="43.26379300288673" lon="10.884243102113446"><ele>380.0</ele><time>2026-03-26T15:21:45Z</time></trkpt><trkpt lat="43.263743000129615" lon="10.884188661831452"><ele>380.0</ele><time>2026-03-26T15:21:56Z</time></trkpt><trkpt lat="43.2636611952062" lon="10.88420677118364"><ele>380.0</ele><time>2026-03-26T15:22:09Z</time></trkpt><trkpt lat="43.26360118243482" lon="10.884258592473184"><ele>380.0</ele><time>2026-03-26T15:22:19Z</time></trkpt><trkpt lat="43.263538312025126" lon="10.88431767233608"><ele>380.0</ele><time>2026-03-26T15:22:25Z</time></trkpt><trkpt lat="43.263478863724465" lon="10.88434885966503"><ele>380.0</ele><time>2026-03-26T15:22:32Z</time></trkpt><trkpt lat="43.26342972721766" lon="10.884435511962437"><ele>362.0</ele><time>2026-03-26T15:22:49Z</time></trkpt><trkpt lat="43.2634625764224" lon="10.884514672641727"><ele>362.0</ele><time>2026-03-26T15:22:55Z</time></trkpt><trkpt lat="43.263528137254944" lon="10.884518216758298"><ele>362.0</ele><time>2026-03-26T15:23:12Z</time></trkpt><trkpt lat="43.2635977645276" lon="10.884504114163652"><ele>362.0</ele><time>2026-03-26T15:23:17Z</time></trkpt><trkpt lat="43.26363694449007" lon="10.884426435108766"><ele>362.0</ele><time>2026-03-26T15:23:26Z</time></trkpt></trkseg></trk></gpx>